Terminal Aerodrome Forecast
Issued by NWS

Home | Current Version | Previous Version | Text Only | Print | Product List | Glossary On
Versions: 1 2 3 4 5 6 7 8 9 10 11 12 13 14 15 16 17 18 19
887
FTUS41 KPHI 251007 AAB
TAFMIV
TAF AMD
KMIV 251007Z 2510/2606 VRB03KT P6SM FEW030
      TEMPO 2511/2513 4SM BR BKN015
     FM251300 15005KT 6SM BR BKN015
     FM251500 17010G18KT P6SM BKN035
      TEMPO 2522/2524 27016G30KT 3SM TSRA OVC020CB
     FM260000 30010G18KT P6SM VCSH OVC050
     FM260200 29012G20KT P6SM SCT040=

USA.gov is the U.S. government's official web portal to all federal, state and local government web resources and services.